createdAt,value
2018-12-23T00:00:36.169Z,20.90
2018-12-23T00:03:11.238Z,22.70
2018-12-23T00:05:46.091Z,14.97
2018-12-23T00:08:20.746Z,25.87
2018-12-23T00:10:55.606Z,24.77
2018-12-23T00:13:30.878Z,24.73
2018-12-23T00:16:05.700Z,22.80
2018-12-23T00:18:40.508Z,24.97
2018-12-23T00:21:16.067Z,22.13
2018-12-23T00:23:50.809Z,24.93
2018-12-23T00:26:25.978Z,19.73
2018-12-23T00:29:00.827Z,23.00
2018-12-23T00:31:38.875Z,24.13
2018-12-23T00:34:13.754Z,20.53
2018-12-23T00:36:48.523Z,31.23
2018-12-23T00:39:23.557Z,28.67
2018-12-23T00:41:59.235Z,22.43
2018-12-23T00:44:34.038Z,27.10
2018-12-23T00:47:08.967Z,21.70
2018-12-23T00:49:43.751Z,20.33
2018-12-23T00:52:18.632Z,38.13
2018-12-23T00:54:53.428Z,26.20
2018-12-23T00:57:28.371Z,23.90
2018-12-23T01:00:04.001Z,26.07
2018-12-23T01:02:38.621Z,32.33
2018-12-23T01:05:13.396Z,23.57
2018-12-23T01:07:48.260Z,20.00
2018-12-23T01:10:23.135Z,27.73
2018-12-23T01:12:58.351Z,21.60
2018-12-23T01:15:33.488Z,29.23
2018-12-23T01:18:08.189Z,25.00
2018-12-23T01:20:42.925Z,23.63
2018-12-23T01:23:17.759Z,21.70
2018-12-23T01:25:52.701Z,20.90
2018-12-23T01:28:27.708Z,27.50
2018-12-23T01:31:02.875Z,29.27
2018-12-23T01:33:37.706Z,21.13
2018-12-23T01:36:12.440Z,23.90
2018-12-23T01:38:47.674Z,30.57
2018-12-23T01:41:22.236Z,30.30
2018-12-23T01:43:57.933Z,26.00
2018-12-23T01:46:32.820Z,29.17
2018-12-23T01:49:07.595Z,31.30
2018-12-23T01:51:42.330Z,25.27
2018-12-23T01:54:17.305Z,25.20
2018-12-23T01:56:52.136Z,28.97
2018-12-23T01:59:27.667Z,25.00
2018-12-23T02:02:02.463Z,37.30
2018-12-23T02:04:37.591Z,33.30
2018-12-23T02:07:12.379Z,25.93
2018-12-23T02:09:47.543Z,31.60
2018-12-23T02:12:22.306Z,21.70
2018-12-23T02:14:57.232Z,27.20
2018-12-23T02:17:32.165Z,27.77
2018-12-23T02:20:08.167Z,19.90
2018-12-23T02:22:43.070Z,25.10
2018-12-23T02:25:17.788Z,21.97
2018-12-23T02:27:53.924Z,30.10
2018-12-23T02:30:28.698Z,35.10
2018-12-23T02:33:03.619Z,26.43
2018-12-23T02:35:38.598Z,27.00
2018-12-23T02:38:13.483Z,32.30
2018-12-23T02:40:48.149Z,33.20
2018-12-23T02:43:23.069Z,29.73
2018-12-23T02:45:57.960Z,33.73
2018-12-23T02:48:32.882Z,28.77
2018-12-23T02:51:08.024Z,29.27
2018-12-23T02:53:42.751Z,36.80
2018-12-23T02:56:17.618Z,36.07
2018-12-23T02:58:52.280Z,39.93
2018-12-23T03:01:27.104Z,37.30
2018-12-23T03:04:02.222Z,31.73
2018-12-23T03:06:36.946Z,36.73
2018-12-23T03:09:11.902Z,32.53
2018-12-23T03:11:46.944Z,38.33
2018-12-23T03:14:21.656Z,29.70
2018-12-23T03:16:56.285Z,37.73
2018-12-23T03:19:32.620Z,37.67
2018-12-23T03:22:07.346Z,37.30
2018-12-23T03:24:42.616Z,35.70
2018-12-23T03:27:17.761Z,30.73
2018-12-23T03:29:52.564Z,34.33
2018-12-23T03:32:27.527Z,34.30
2018-12-23T03:35:02.456Z,24.77
2018-12-23T03:37:37.305Z,37.50
2018-12-23T03:40:12.246Z,42.77
2018-12-23T03:42:47.420Z,34.90
2018-12-23T03:45:22.360Z,36.57
2018-12-23T03:47:57.499Z,36.93
2018-12-23T03:50:32.485Z,41.30
2018-12-23T03:53:07.409Z,42.47
2018-12-23T03:55:42.373Z,37.23
2018-12-23T03:58:17.800Z,33.50
2018-12-23T04:00:52.777Z,29.73
2018-12-23T04:03:27.528Z,32.40
2018-12-23T04:06:02.289Z,34.63
2018-12-23T04:08:37.001Z,34.37
2018-12-23T04:11:11.940Z,36.33
2018-12-23T04:13:47.454Z,42.47
2018-12-23T04:16:22.275Z,36.20
2018-12-23T04:18:57.134Z,33.23
2018-12-23T04:21:32.012Z,46.53
2018-12-23T04:24:07.420Z,33.07
2018-12-23T04:26:42.496Z,37.07
2018-12-23T04:29:17.147Z,35.83
2018-12-23T04:31:51.829Z,42.17
2018-12-23T04:34:26.673Z,36.30
2018-12-23T04:37:01.600Z,38.57
2018-12-23T04:39:36.279Z,38.63
2018-12-23T04:42:11.058Z,32.07
2018-12-23T04:44:45.923Z,51.77
2018-12-23T04:47:21.083Z,39.47
2018-12-23T04:49:55.792Z,42.60
2018-12-23T04:52:30.687Z,36.93
2018-12-23T04:55:05.706Z,40.83
2018-12-23T04:57:40.678Z,39.97
2018-12-23T05:00:15.666Z,40.73
2018-12-23T05:02:50.950Z,39.07
2018-12-23T05:05:25.797Z,32.93
2018-12-23T05:08:00.728Z,36.63
2018-12-23T05:10:35.455Z,43.90
2018-12-23T05:13:10.355Z,37.40
2018-12-23T05:15:45.159Z,35.93
2018-12-23T05:18:20.095Z,40.67
2018-12-23T05:20:54.879Z,41.70
2018-12-23T05:23:29.654Z,36.40
2018-12-23T05:26:04.882Z,40.47
2018-12-23T05:28:39.516Z,48.90
2018-12-23T05:31:14.554Z,36.13
2018-12-23T05:33:49.647Z,30.73
2018-12-23T05:36:24.570Z,48.37
2018-12-23T05:38:59.290Z,36.97
2018-12-23T05:41:34.111Z,38.47
2018-12-23T05:44:09.076Z,39.87
2018-12-23T05:46:43.837Z,35.03
2018-12-23T05:49:18.662Z,36.97
2018-12-23T05:51:53.868Z,39.07
2018-12-23T05:54:28.707Z,36.33
2018-12-23T05:57:03.479Z,49.20
2018-12-23T05:59:38.361Z,38.53
2018-12-23T06:02:13.129Z,41.20
2018-12-23T06:04:48.438Z,41.93
2018-12-23T06:07:23.301Z,36.30
2018-12-23T06:09:58.408Z,40.70
2018-12-23T06:12:33.349Z,32.47
2018-12-23T06:15:13.538Z,45.43
2018-12-23T06:17:48.289Z,46.47
2018-12-23T06:20:22.993Z,33.23
2018-12-23T06:22:57.675Z,35.60
2018-12-23T06:25:32.766Z,35.07
2018-12-23T06:28:07.543Z,36.30
2018-12-23T06:30:42.277Z,40.57
2018-12-23T06:33:17.542Z,38.53
2018-12-23T06:35:52.617Z,38.67
2018-12-23T06:38:27.427Z,36.53
2018-12-23T06:41:02.459Z,33.23
2018-12-23T06:43:37.107Z,37.33
2018-12-23T06:46:12.495Z,41.20
2018-12-23T06:48:48.409Z,36.33
2018-12-23T06:51:23.486Z,40.63
2018-12-23T06:53:58.796Z,35.07
2018-12-23T06:56:34.463Z,32.43
2018-12-23T06:59:09.101Z,39.27
2018-12-23T07:01:43.826Z,32.13
2018-12-23T07:04:18.742Z,29.30
2018-12-23T07:06:53.954Z,27.83
2018-12-23T07:09:28.953Z,32.77
2018-12-23T07:12:04.025Z,38.00
2018-12-23T07:14:38.789Z,30.97
2018-12-23T07:17:14.092Z,37.60
2018-12-23T07:19:48.913Z,29.33
2018-12-23T07:22:23.836Z,29.13
2018-12-23T07:24:59.782Z,31.30
2018-12-23T07:27:34.489Z,28.63
2018-12-23T07:30:09.382Z,28.87
2018-12-23T07:32:44.178Z,36.73
2018-12-23T07:35:19.017Z,31.87
2018-12-23T07:37:53.754Z,32.53
2018-12-23T07:40:28.606Z,25.13
2018-12-23T07:43:03.594Z,35.67
2018-12-23T07:45:38.454Z,26.10
2018-12-23T07:48:13.333Z,31.43
2018-12-23T07:50:48.333Z,28.30
2018-12-23T07:53:23.353Z,27.73
2018-12-23T07:55:59.381Z,33.43
2018-12-23T07:58:34.739Z,30.90
2018-12-23T08:01:10.304Z,23.47
2018-12-23T08:03:45.290Z,28.20
2018-12-23T08:06:20.040Z,24.87
2018-12-23T08:08:55.206Z,23.90
2018-12-23T08:11:29.946Z,33.03
2018-12-23T08:14:06.015Z,26.57
2018-12-23T08:16:40.823Z,26.67
2018-12-23T08:19:15.617Z,29.40
2018-12-23T08:21:50.533Z,30.13
2018-12-23T08:24:25.480Z,21.60
2018-12-23T08:27:00.609Z,22.30
2018-12-23T08:29:35.701Z,28.20
2018-12-23T08:32:10.635Z,25.13
2018-12-23T08:34:45.426Z,23.80
2018-12-23T08:37:20.168Z,24.83
2018-12-23T08:39:55.805Z,23.50
2018-12-23T08:42:30.907Z,28.87
2018-12-23T08:45:06.836Z,24.93
2018-12-23T08:47:41.608Z,28.23
2018-12-23T08:50:16.484Z,24.23
2018-12-23T08:52:51.719Z,28.20
2018-12-23T08:55:26.668Z,24.60
2018-12-23T08:58:01.707Z,17.43
2018-12-23T09:00:36.724Z,20.50
2018-12-23T09:03:18.676Z,19.23
2018-12-23T09:05:48.639Z,33.73
2018-12-23T09:08:23.470Z,22.90
2018-12-23T09:10:58.379Z,28.27
2018-12-23T09:13:33.120Z,23.00
2018-12-23T09:16:08.690Z,22.40
2018-12-23T09:18:43.512Z,34.03
2018-12-23T09:21:19.292Z,26.73
2018-12-23T09:23:54.286Z,25.17
2018-12-23T09:26:29.382Z,20.70
2018-12-23T09:29:04.112Z,25.97
2018-12-23T09:31:39.279Z,20.40
2018-12-23T09:34:14.408Z,15.97
2018-12-23T09:36:49.270Z,22.40
2018-12-23T09:39:24.316Z,24.00
2018-12-23T09:41:59.586Z,24.10
2018-12-23T09:44:34.653Z,21.70
2018-12-23T09:47:09.816Z,28.10
2018-12-23T09:49:44.597Z,24.67
2018-12-23T09:52:19.756Z,26.33
2018-12-23T09:54:54.915Z,20.70
2018-12-23T09:57:29.997Z,25.57
2018-12-23T10:00:06.308Z,19.43
2018-12-23T10:02:41.262Z,19.60
2018-12-23T10:05:16.439Z,18.13
2018-12-23T10:07:51.501Z,22.50
2018-12-23T10:10:28.479Z,23.60
2018-12-23T10:13:03.876Z,26.33
2018-12-23T10:15:39.052Z,18.37
2018-12-23T10:18:15.887Z,22.53
2018-12-23T10:20:50.777Z,23.93
2018-12-23T10:23:25.678Z,21.70
2018-12-23T10:26:00.740Z,28.47
2018-12-23T10:28:35.788Z,19.30
2018-12-23T10:31:10.559Z,17.90
2018-12-23T10:33:45.601Z,23.87
2018-12-23T10:36:20.475Z,20.47
2018-12-23T10:38:56.628Z,30.57
2018-12-23T10:41:31.832Z,33.53
2018-12-23T10:44:06.811Z,25.73
2018-12-23T10:46:42.060Z,17.20
2018-12-23T10:49:17.644Z,20.83
2018-12-23T10:51:53.552Z,23.70
2018-12-23T10:54:28.495Z,21.40
2018-12-23T10:57:03.568Z,17.60
2018-12-23T10:59:38.305Z,15.47
2018-12-23T11:02:13.763Z,21.63
2018-12-23T11:04:49.138Z,24.77
2018-12-23T11:07:24.165Z,33.70
2018-12-23T11:10:02.257Z,17.90
2018-12-23T11:12:36.268Z,24.17
2018-12-23T11:15:11.637Z,20.80
2018-12-23T11:17:46.315Z,24.83
2018-12-23T11:20:25.980Z,32.73
2018-12-23T11:23:01.133Z,21.63
2018-12-23T11:25:36.061Z,25.07
2018-12-23T11:28:11.103Z,22.67
2018-12-23T11:30:45.979Z,23.80
2018-12-23T11:33:21.220Z,25.63
2018-12-23T11:35:56.672Z,18.80
2018-12-23T11:38:35.412Z,27.33
2018-12-23T11:41:08.471Z,30.63
2018-12-23T11:43:43.152Z,28.20
2018-12-23T11:46:17.971Z,30.80
2018-12-23T11:48:52.987Z,26.13
2018-12-23T11:51:27.809Z,35.10
2018-12-23T11:54:02.909Z,33.80
2018-12-23T11:56:37.834Z,27.60
2018-12-23T11:59:12.627Z,27.23
2018-12-23T12:01:47.621Z,23.57
2018-12-23T12:04:23.105Z,25.97
2018-12-23T12:06:58.014Z,25.53
2018-12-23T12:09:32.790Z,27.17
2018-12-23T12:12:08.068Z,28.30
2018-12-23T12:14:43.119Z,26.47
2018-12-23T12:17:17.777Z,27.87
2018-12-23T12:19:52.617Z,34.53
2018-12-23T12:22:27.654Z,25.10
2018-12-23T12:25:02.625Z,26.10
2018-12-23T12:27:37.471Z,30.53
2018-12-23T12:30:12.542Z,19.80
2018-12-23T12:32:47.515Z,25.03
2018-12-23T12:35:22.667Z,18.33
2018-12-23T12:37:57.333Z,29.30
2018-12-23T12:40:32.340Z,21.43
2018-12-23T12:43:07.297Z,19.90
2018-12-23T12:45:42.293Z,29.30
2018-12-23T12:48:17.273Z,22.40
2018-12-23T12:50:52.687Z,29.00
2018-12-23T12:53:27.984Z,22.10
2018-12-23T12:56:03.034Z,26.40
2018-12-23T12:58:38.375Z,23.00
2018-12-23T13:01:13.487Z,13.57
2018-12-23T13:03:48.476Z,19.57
2018-12-23T13:06:23.520Z,20.93
2018-12-23T13:09:00.545Z,19.83
2018-12-23T13:11:35.315Z,16.20
2018-12-23T13:14:10.267Z,18.53
2018-12-23T13:16:45.104Z,16.27
2018-12-23T13:19:19.996Z,19.17
2018-12-23T13:21:54.690Z,19.37
2018-12-23T13:24:29.592Z,16.00
2018-12-23T13:27:05.233Z,16.50
2018-12-23T13:29:40.034Z,11.23
2018-12-23T13:32:14.935Z,9.40
2018-12-23T13:34:49.807Z,16.20
2018-12-23T13:37:24.874Z,12.90
2018-12-23T13:40:07.006Z,16.57
2018-12-23T13:43:11.971Z,18.03
2018-12-23T13:47:17.176Z,11.03
2018-12-23T13:54:11.739Z,12.60
2018-12-23T13:56:59.580Z,18.33
2018-12-23T14:01:54.378Z,13.90
2018-12-23T14:14:34.877Z,15.83
2018-12-23T14:17:09.971Z,8.57
2018-12-23T14:19:45.141Z,16.93
2018-12-23T14:22:20.616Z,13.17
2018-12-23T14:24:55.636Z,17.83
2018-12-23T14:27:31.173Z,21.00
2018-12-23T14:30:06.951Z,16.97
2018-12-23T14:32:42.135Z,19.97
2018-12-23T14:35:17.093Z,14.47
2018-12-23T14:37:52.336Z,18.83
2018-12-23T14:40:27.184Z,17.70
2018-12-23T14:43:37.778Z,14.23
2018-12-23T14:46:27.665Z,16.30
2018-12-23T14:49:17.152Z,15.50
2018-12-23T14:52:06.917Z,13.87
2018-12-23T14:54:56.008Z,13.23
2018-12-23T14:57:45.682Z,9.97
2018-12-23T15:00:35.800Z,17.20
2018-12-23T15:03:25.795Z,17.00
2018-12-23T15:06:15.007Z,13.77
2018-12-23T15:09:05.544Z,16.30
2018-12-23T15:11:55.134Z,20.30
2018-12-23T15:14:44.261Z,18.23
2018-12-23T15:17:34.004Z,12.77
2018-12-23T15:20:23.508Z,16.17
2018-12-23T15:23:12.654Z,13.03
2018-12-23T15:26:02.308Z,14.33
2018-12-23T15:28:52.820Z,11.73
2018-12-23T15:31:42.625Z,14.07
2018-12-23T15:34:32.848Z,11.80
2018-12-23T15:37:22.071Z,17.70
2018-12-23T15:40:11.777Z,18.17
2018-12-23T15:43:00.865Z,19.77
2018-12-23T15:45:50.777Z,16.10
2018-12-23T15:48:40.763Z,20.20
2018-12-23T15:51:30.691Z,22.27
2018-12-23T15:54:20.448Z,17.60
2018-12-23T15:57:10.698Z,19.40
2018-12-23T16:00:00.678Z,21.47
2018-12-23T16:02:50.528Z,30.13
2018-12-23T16:05:40.329Z,27.70
2018-12-23T16:08:29.555Z,30.53
2018-12-23T16:11:18.571Z,32.50
2018-12-23T16:14:07.840Z,30.53
2018-12-23T16:16:56.963Z,30.40
2018-12-23T16:19:46.631Z,36.97
2018-12-23T16:22:37.192Z,34.37
2018-12-23T16:25:27.210Z,33.53
2018-12-23T16:28:16.207Z,34.27
2018-12-23T16:31:05.710Z,36.07
2018-12-23T16:33:55.176Z,36.03
2018-12-23T16:36:44.653Z,30.70
2018-12-23T16:39:34.517Z,38.53
2018-12-23T16:42:24.274Z,36.30
2018-12-23T16:45:13.966Z,43.07
2018-12-23T16:48:03.432Z,36.93
2018-12-23T16:50:52.960Z,33.60
2018-12-23T16:53:42.666Z,36.63
2018-12-23T16:56:31.766Z,39.33
2018-12-23T16:59:20.946Z,42.13
2018-12-23T17:02:10.489Z,55.73
2018-12-23T17:04:59.847Z,48.70
2018-12-23T17:07:49.569Z,50.10
2018-12-23T17:10:38.896Z,50.60
2018-12-23T17:13:28.835Z,53.27
2018-12-23T17:16:18.431Z,54.83
2018-12-23T17:19:08.002Z,57.73
2018-12-23T17:21:57.120Z,46.73
2018-12-23T17:24:46.613Z,51.67
2018-12-23T17:27:36.146Z,51.23
2018-12-23T17:30:25.660Z,50.20
2018-12-23T17:33:14.937Z,48.00
2018-12-23T17:36:04.473Z,45.60
2018-12-23T17:38:54.060Z,44.83
2018-12-23T17:41:43.189Z,41.20
2018-12-23T17:44:32.329Z,42.70
2018-12-23T17:47:21.988Z,58.10
2018-12-23T17:50:12.130Z,48.20
2018-12-23T17:53:01.925Z,49.80
2018-12-23T17:55:51.233Z,51.63
2018-12-23T17:58:41.233Z,58.77
2018-12-23T18:01:31.204Z,55.73
2018-12-23T18:04:21.006Z,60.37
2018-12-23T18:07:10.989Z,58.60
2018-12-23T18:10:00.389Z,58.57
2018-12-23T18:12:49.887Z,56.53
2018-12-23T18:15:39.145Z,56.40
2018-12-23T18:18:29.228Z,54.87
2018-12-23T18:21:18.526Z,58.83
2018-12-23T18:24:08.114Z,52.67
2018-12-23T18:26:57.296Z,54.40
2018-12-23T18:29:47.060Z,56.80
2018-12-23T18:32:37.086Z,68.23
2018-12-23T18:35:26.682Z,57.20
2018-12-23T18:38:16.444Z,64.87
2018-12-23T18:41:05.865Z,62.40
2018-12-23T18:43:55.241Z,75.17
2018-12-23T18:46:45.944Z,68.13
2018-12-23T18:49:36.093Z,66.03
2018-12-23T18:52:26.014Z,61.70
2018-12-23T18:55:15.215Z,51.70
2018-12-23T18:58:04.904Z,64.63
2018-12-23T19:00:58.429Z,65.13
2018-12-23T19:03:47.932Z,71.63
2018-12-23T19:06:37.788Z,60.00
2018-12-23T19:09:48.128Z,65.30
2018-12-23T19:13:24.895Z,65.50
2018-12-23T19:16:34.687Z,71.63
2018-12-23T19:20:26.490Z,53.63
2018-12-23T19:23:38.863Z,66.27
2018-12-23T19:27:14.898Z,55.53
2018-12-23T19:30:45.033Z,52.73
2018-12-23T19:34:12.789Z,69.50
2018-12-23T19:37:36.106Z,49.93
2018-12-23T19:41:06.851Z,49.77
2018-12-23T19:44:24.134Z,52.03
2018-12-23T19:47:40.908Z,54.20
2018-12-23T19:50:51.748Z,59.20
2018-12-23T19:54:03.611Z,54.00
2018-12-23T19:57:42.547Z,49.03
2018-12-23T20:01:03.581Z,52.73
2018-12-23T20:04:26.268Z,45.17
2018-12-23T20:07:58.718Z,49.90
2018-12-23T20:11:25.316Z,48.53
2018-12-23T20:14:47.643Z,51.43
2018-12-23T20:18:27.156Z,47.03
2018-12-23T20:21:31.457Z,46.77
2018-12-23T20:24:40.491Z,46.30
2018-12-23T20:27:56.326Z,43.83
2018-12-23T20:31:20.201Z,43.90
2018-12-23T20:34:41.151Z,54.33
2018-12-23T20:37:53.646Z,39.87
2018-12-23T20:41:20.614Z,36.03
2018-12-23T20:44:59.363Z,30.63
2018-12-23T20:48:10.350Z,32.03
2018-12-23T20:51:35.032Z,27.70
2018-12-23T20:54:55.561Z,29.70
2018-12-23T20:58:14.667Z,25.23
2018-12-23T21:01:33.563Z,16.77
2018-12-23T21:04:56.019Z,15.83
2018-12-23T21:08:34.605Z,11.83
2018-12-23T21:11:47.975Z,14.87
2018-12-23T21:15:37.087Z,15.10
2018-12-23T21:18:50.442Z,8.13
2018-12-23T21:22:24.308Z,8.70
2018-12-23T21:25:59.441Z,12.60
2018-12-23T21:29:37.939Z,8.63
2018-12-23T21:33:04.011Z,9.23
2018-12-23T21:36:26.984Z,8.03
2018-12-23T21:39:41.119Z,7.40
2018-12-23T21:43:18.379Z,8.63
2018-12-23T21:46:47.767Z,8.93
2018-12-23T21:50:33.354Z,11.27
2018-12-23T21:54:21.707Z,13.00
2018-12-23T21:57:47.545Z,17.10
2018-12-23T22:01:19.818Z,15.30
2018-12-23T22:04:44.879Z,17.63
2018-12-23T22:08:17.026Z,18.47
2018-12-23T22:11:48.838Z,24.27
2018-12-23T22:14:39.414Z,21.80
2018-12-23T22:17:28.622Z,25.00
2018-12-23T22:20:17.397Z,22.23
2018-12-23T22:23:06.561Z,27.90
2018-12-23T22:25:57.170Z,29.93
2018-12-23T22:28:46.899Z,30.90
2018-12-23T22:31:36.285Z,30.80
2018-12-23T22:34:26.696Z,25.37
2018-12-23T22:37:16.186Z,25.83
2018-12-23T22:40:06.588Z,26.20
2018-12-23T22:42:56.130Z,19.83
2018-12-23T22:45:45.439Z,22.73
2018-12-23T22:48:35.058Z,20.87
2018-12-23T22:51:24.682Z,14.77
2018-12-23T22:54:14.431Z,14.57
2018-12-23T22:57:04.435Z,15.53
2018-12-23T22:59:53.666Z,14.50
2018-12-23T23:02:43.177Z,12.57
2018-12-23T23:05:32.775Z,13.53
2018-12-23T23:08:22.003Z,15.73
2018-12-23T23:11:11.356Z,13.07
2018-12-23T23:14:01.262Z,13.67
2018-12-23T23:16:51.014Z,14.77
2018-12-23T23:19:40.772Z,16.90
2018-12-23T23:22:30.074Z,18.87
2018-12-23T23:25:20.126Z,22.70
2018-12-23T23:28:10.185Z,23.30
2018-12-23T23:31:00.088Z,24.47
2018-12-23T23:33:50.093Z,28.03
2018-12-23T23:36:40.164Z,23.60
2018-12-23T23:39:29.234Z,31.77
2018-12-23T23:42:18.262Z,27.67
2018-12-23T23:45:08.254Z,30.53
2018-12-23T23:47:57.278Z,25.73
2018-12-23T23:50:46.862Z,28.50
2018-12-23T23:53:36.362Z,25.70
2018-12-23T23:56:25.899Z,33.17
2018-12-23T23:59:15.709Z,28.73
